createdAt,value
2023-01-29T00:01:53.724Z,93.09
2023-01-29T00:04:20.691Z,92.94
2023-01-29T00:06:47.150Z,92.88
2023-01-29T00:09:14.117Z,93.10
2023-01-29T00:11:41.336Z,92.52
2023-01-29T00:14:07.921Z,92.40
2023-01-29T00:16:34.352Z,92.29
2023-01-29T00:19:02.173Z,92.35
2023-01-29T00:21:31.018Z,92.29
2023-01-29T00:23:58.195Z,92.13
2023-01-29T00:26:25.143Z,92.18
2023-01-29T00:28:51.611Z,91.88
2023-01-29T00:31:20.247Z,91.92
2023-01-29T00:33:47.771Z,92.12
2023-01-29T00:36:15.779Z,92.20
2023-01-29T00:38:42.644Z,92.09
2023-01-29T00:41:30.176Z,92.30
2023-01-29T00:44:15.443Z,92.34
2023-01-29T00:46:41.941Z,92.42
2023-01-29T00:49:09.104Z,92.39
2023-01-29T00:51:36.778Z,92.40
2023-01-29T00:54:04.346Z,92.62
2023-01-29T00:56:31.047Z,92.69
2023-01-29T00:58:57.508Z,92.75
2023-01-29T01:01:43.149Z,92.59
2023-01-29T01:04:11.345Z,92.77
2023-01-29T01:06:39.188Z,92.69
2023-01-29T01:09:25.185Z,92.84
2023-01-29T01:11:51.773Z,92.62
2023-01-29T01:14:19.696Z,92.88
2023-01-29T01:16:47.650Z,92.66
2023-01-29T01:19:18.449Z,92.60
2023-01-29T01:21:46.981Z,92.65
2023-01-29T01:24:13.662Z,92.92
2023-01-29T01:26:40.136Z,92.48
2023-01-29T01:29:06.844Z,92.61
2023-01-29T01:31:33.409Z,92.83
2023-01-29T01:33:59.898Z,92.82
2023-01-29T01:36:26.298Z,92.78
2023-01-29T01:38:52.693Z,92.84
2023-01-29T01:41:21.742Z,92.86
2023-01-29T01:44:00.104Z,92.83
2023-01-29T01:46:33.699Z,92.98
2023-01-29T01:49:11.877Z,92.59
2023-01-29T01:51:45.158Z,92.75
2023-01-29T01:54:21.171Z,92.39
2023-01-29T01:56:55.432Z,92.53
2023-01-29T01:59:22.937Z,92.47
2023-01-29T02:01:53.931Z,92.61
2023-01-29T02:04:42.527Z,92.48
2023-01-29T02:07:31.415Z,92.35
2023-01-29T02:10:09.466Z,92.26
2023-01-29T02:12:37.367Z,92.57
2023-01-29T02:15:04.590Z,92.63
2023-01-29T02:17:32.237Z,92.65
2023-01-29T02:20:20.849Z,92.78
2023-01-29T02:23:23.320Z,92.68
2023-01-29T02:26:26.773Z,92.66
2023-01-29T02:28:53.807Z,92.67
2023-01-29T02:31:41.183Z,92.73
2023-01-29T02:34:29.483Z,92.64
2023-01-29T02:37:08.523Z,92.85
2023-01-29T02:39:51.784Z,92.96
2023-01-29T02:42:27.261Z,93.00
2023-01-29T02:45:04.359Z,92.75
2023-01-29T02:47:50.030Z,93.11
2023-01-29T02:50:37.456Z,93.05
2023-01-29T02:53:21.649Z,93.06
2023-01-29T02:56:05.726Z,93.21
2023-01-29T02:59:00.333Z,93.26
2023-01-29T03:01:59.924Z,93.11
2023-01-29T03:04:32.982Z,92.88
2023-01-29T03:07:22.424Z,92.91
2023-01-29T03:09:52.642Z,93.11
2023-01-29T03:12:33.823Z,93.11
2023-01-29T03:15:15.961Z,93.04
2023-01-29T03:17:47.570Z,93.01
2023-01-29T03:20:20.665Z,92.89
2023-01-29T03:22:53.385Z,93.04
2023-01-29T03:25:44.351Z,92.77
2023-01-29T03:28:34.181Z,92.67
2023-01-29T03:31:23.314Z,92.67
2023-01-29T03:33:54.509Z,92.69
2023-01-29T03:36:39.788Z,92.49
2023-01-29T03:39:08.596Z,92.56
2023-01-29T03:41:40.812Z,92.47
2023-01-29T03:44:18.115Z,92.68
2023-01-29T03:47:00.412Z,92.82
2023-01-29T03:49:41.541Z,92.64
2023-01-29T03:52:34.914Z,92.80
2023-01-29T03:55:15.149Z,92.92
2023-01-29T03:57:58.564Z,92.95
2023-01-29T04:00:52.545Z,93.24
2023-01-29T04:03:28.988Z,92.94
2023-01-29T04:06:05.479Z,93.36
2023-01-29T04:08:38.732Z,93.30
2023-01-29T04:11:12.699Z,93.36
2023-01-29T04:13:40.095Z,93.29
2023-01-29T04:16:12.672Z,93.12
2023-01-29T04:18:39.394Z,93.11
2023-01-29T04:21:07.361Z,93.19
2023-01-29T04:23:34.224Z,93.25
2023-01-29T04:26:30.364Z,93.12
2023-01-29T04:29:20.319Z,92.79
2023-01-29T04:32:08.127Z,92.74
2023-01-29T04:34:59.539Z,92.93
2023-01-29T04:37:50.027Z,93.13
2023-01-29T04:40:28.705Z,92.81
2023-01-29T04:43:02.228Z,92.69
2023-01-29T04:45:44.682Z,92.84
2023-01-29T04:48:25.823Z,92.93
2023-01-29T04:51:10.309Z,92.65
2023-01-29T04:54:14.357Z,92.83
2023-01-29T04:56:43.940Z,92.59
2023-01-29T04:59:20.792Z,92.55
2023-01-29T05:01:48.792Z,92.24
2023-01-29T05:04:20.416Z,92.54
2023-01-29T05:06:47.765Z,92.36
2023-01-29T05:09:17.151Z,92.53
2023-01-29T05:11:47.151Z,92.41
2023-01-29T05:14:16.956Z,92.47
2023-01-29T05:16:47.507Z,92.22
2023-01-29T05:19:16.140Z,92.30
2023-01-29T05:21:46.067Z,92.20
2023-01-29T05:24:15.949Z,91.86
2023-01-29T05:27:03.058Z,91.83
2023-01-29T05:29:29.460Z,91.81
2023-01-29T05:31:55.907Z,92.07
2023-01-29T05:34:22.507Z,92.02
2023-01-29T05:36:48.894Z,92.15
2023-01-29T05:39:15.344Z,92.21
2023-01-29T05:41:41.847Z,91.92
2023-01-29T05:44:10.558Z,91.85
2023-01-29T05:46:37.826Z,91.60
2023-01-29T05:49:05.005Z,91.50
2023-01-29T05:51:31.847Z,91.61
2023-01-29T05:53:58.268Z,91.63
2023-01-29T05:56:25.403Z,91.19
2023-01-29T05:58:52.740Z,91.17
2023-01-29T06:01:21.731Z,91.04
2023-01-29T06:03:48.831Z,91.13
2023-01-29T06:06:15.448Z,90.90
2023-01-29T06:08:42.003Z,91.09
2023-01-29T06:11:10.430Z,90.86
2023-01-29T06:13:37.170Z,90.97
2023-01-29T06:16:08.568Z,90.73
2023-01-29T06:18:35.934Z,90.37
2023-01-29T06:21:06.828Z,90.49
2023-01-29T06:23:33.698Z,90.49
2023-01-29T06:26:06.777Z,90.50
2023-01-29T06:28:33.352Z,90.51
2023-01-29T06:31:20.021Z,90.08
2023-01-29T06:33:48.596Z,90.10
2023-01-29T06:36:14.993Z,90.24
2023-01-29T06:38:41.365Z,90.14
2023-01-29T06:41:12.752Z,89.95
2023-01-29T06:43:39.647Z,90.21
2023-01-29T06:46:08.167Z,90.01
2023-01-29T06:48:35.216Z,89.88
2023-01-29T06:51:08.737Z,89.66
2023-01-29T06:53:36.376Z,89.42
2023-01-29T06:56:03.605Z,89.52
2023-01-29T06:58:29.982Z,89.37
2023-01-29T07:01:06.774Z,89.32
2023-01-29T07:03:33.299Z,89.41
2023-01-29T07:06:00.145Z,88.96
2023-01-29T07:08:26.583Z,89.12
2023-01-29T07:10:53.103Z,88.89
2023-01-29T07:13:19.499Z,89.03
2023-01-29T07:15:46.196Z,89.38
2023-01-29T07:18:12.613Z,88.95
2023-01-29T07:20:40.923Z,88.75
2023-01-29T07:23:10.931Z,89.13
2023-01-29T07:25:37.571Z,88.87
2023-01-29T07:28:04.223Z,88.91
2023-01-29T07:30:31.074Z,89.00
2023-01-29T07:33:08.141Z,89.01
2023-01-29T07:35:43.013Z,89.34
2023-01-29T07:38:11.093Z,89.06
2023-01-29T07:40:37.534Z,89.09
2023-01-29T07:43:06.437Z,89.14
2023-01-29T07:45:35.536Z,88.73
2023-01-29T07:48:04.817Z,89.01
2023-01-29T07:50:32.675Z,88.96
2023-01-29T07:52:59.091Z,89.00
2023-01-29T07:55:25.683Z,89.53
2023-01-29T07:57:59.885Z,89.09
2023-01-29T08:00:26.478Z,89.07
2023-01-29T08:02:52.858Z,89.08
2023-01-29T08:05:19.708Z,89.31
2023-01-29T08:07:51.528Z,88.94
2023-01-29T08:10:28.160Z,88.89
2023-01-29T08:12:59.862Z,88.90
2023-01-29T08:15:26.640Z,88.72
2023-01-29T08:17:58.120Z,88.46
2023-01-29T08:20:25.521Z,88.43
2023-01-29T08:22:59.362Z,88.56
2023-01-29T08:25:26.143Z,88.42
2023-01-29T08:27:52.888Z,88.14
2023-01-29T08:30:19.287Z,88.20
2023-01-29T08:32:45.648Z,88.08
2023-01-29T08:35:12.069Z,88.08
2023-01-29T08:37:38.444Z,87.87
2023-01-29T08:40:05.380Z,87.54
2023-01-29T08:42:31.765Z,87.65
2023-01-29T08:44:58.151Z,87.52
2023-01-29T08:47:24.572Z,87.40
2023-01-29T08:49:50.967Z,87.52
2023-01-29T08:52:17.396Z,87.29
2023-01-29T08:54:43.816Z,87.30
2023-01-29T08:57:10.263Z,86.79
2023-01-29T08:59:36.605Z,86.57
2023-01-29T09:02:03.092Z,86.48
2023-01-29T09:04:29.503Z,86.78
2023-01-29T09:06:55.866Z,86.58
2023-01-29T09:09:22.237Z,86.11
2023-01-29T09:11:48.658Z,86.20
2023-01-29T09:14:15.061Z,86.14
2023-01-29T09:16:41.499Z,86.22
2023-01-29T09:19:08.342Z,85.96
2023-01-29T09:21:34.958Z,85.82
2023-01-29T09:24:01.330Z,85.84
2023-01-29T09:26:27.732Z,85.55
2023-01-29T09:28:55.368Z,85.37
2023-01-29T09:31:21.822Z,85.76
2023-01-29T09:33:48.369Z,85.20
2023-01-29T09:36:14.715Z,85.27
2023-01-29T09:38:41.075Z,85.08
2023-01-29T09:41:29.360Z,84.90
2023-01-29T09:44:00.934Z,85.04
2023-01-29T09:46:36.842Z,84.86
2023-01-29T09:49:11.268Z,85.02
2023-01-29T09:51:41.861Z,84.64
2023-01-29T09:54:27.390Z,84.51
2023-01-29T09:56:56.888Z,84.98
2023-01-29T09:59:31.332Z,84.57
2023-01-29T10:01:57.750Z,84.44
2023-01-29T10:04:32.773Z,84.43
2023-01-29T10:07:21.835Z,84.42
2023-01-29T10:10:26.599Z,84.22
2023-01-29T10:12:58.742Z,84.19
2023-01-29T10:15:33.855Z,84.30
2023-01-29T10:18:06.565Z,84.22
2023-01-29T10:20:41.757Z,83.63
2023-01-29T10:23:17.176Z,83.72
2023-01-29T10:25:45.352Z,83.68
2023-01-29T10:28:20.140Z,84.30
2023-01-29T10:30:50.484Z,84.15
2023-01-29T10:33:49.035Z,84.00
2023-01-29T10:36:32.479Z,84.34
2023-01-29T10:38:59.008Z,84.06
2023-01-29T10:41:40.810Z,84.25
2023-01-29T10:44:29.950Z,83.80
2023-01-29T10:47:01.444Z,84.28
2023-01-29T10:49:40.140Z,84.04
2023-01-29T10:52:24.791Z,84.13
2023-01-29T10:55:06.476Z,83.81
2023-01-29T10:58:03.655Z,83.84
2023-01-29T11:00:39.218Z,84.11
2023-01-29T11:03:27.421Z,83.87
2023-01-29T11:06:39.913Z,84.05
2023-01-29T11:12:16.903Z,83.98
2023-01-29T11:14:52.910Z,84.10
2023-01-29T11:17:23.844Z,83.90
2023-01-29T11:19:52.119Z,83.91
2023-01-29T11:22:19.950Z,83.96
2023-01-29T11:25:06.640Z,83.76
2023-01-29T11:27:35.525Z,83.82
2023-01-29T11:30:02.479Z,83.66
2023-01-29T11:32:33.681Z,84.05
2023-01-29T11:35:06.168Z,83.93
2023-01-29T11:38:45.460Z,83.76
2023-01-29T11:41:22.256Z,84.08
2023-01-29T11:43:48.620Z,83.88
2023-01-29T11:46:16.094Z,83.87
2023-01-29T11:48:51.427Z,84.48
2023-01-29T11:51:25.750Z,84.36
2023-01-29T11:54:04.335Z,84.20
2023-01-29T11:56:42.106Z,84.33
2023-01-29T11:59:25.346Z,84.85
2023-01-29T12:01:51.966Z,84.36
2023-01-29T12:04:26.365Z,84.60
2023-01-29T12:06:54.431Z,84.86
2023-01-29T12:09:24.224Z,85.21
2023-01-29T12:11:52.564Z,85.17
2023-01-29T12:14:34.142Z,85.55
2023-01-29T12:17:13.849Z,85.94
2023-01-29T12:19:45.965Z,85.91
2023-01-29T12:22:22.172Z,86.21
2023-01-29T12:25:07.427Z,86.07
2023-01-29T12:27:41.801Z,86.21
2023-01-29T12:30:19.723Z,86.04
2023-01-29T12:32:55.428Z,86.35
2023-01-29T12:35:28.437Z,86.47
2023-01-29T12:38:03.765Z,86.66
2023-01-29T12:40:38.215Z,86.53
2023-01-29T12:43:13.176Z,86.59
2023-01-29T12:45:41.860Z,86.34
2023-01-29T12:48:16.610Z,86.45
2023-01-29T12:50:43.087Z,86.23
2023-01-29T12:53:35.082Z,86.23
2023-01-29T12:56:26.661Z,86.45
2023-01-29T12:58:56.129Z,86.39
2023-01-29T13:01:31.160Z,86.47
2023-01-29T13:04:11.649Z,86.62
2023-01-29T13:06:45.223Z,86.44
2023-01-29T13:09:25.632Z,86.52
2023-01-29T13:12:11.299Z,86.35
2023-01-29T13:14:59.073Z,86.98
2023-01-29T13:17:36.282Z,86.51
2023-01-29T13:20:33.952Z,86.62
2023-01-29T13:23:20.671Z,86.43
2023-01-29T13:25:51.334Z,86.89
2023-01-29T13:28:20.535Z,86.54
2023-01-29T13:30:47.557Z,86.33
2023-01-29T13:33:23.091Z,85.82
2023-01-29T13:35:59.146Z,85.86
2023-01-29T13:38:30.683Z,85.90
2023-01-29T13:41:03.068Z,85.53
2023-01-29T13:43:48.308Z,85.56
2023-01-29T13:46:21.490Z,85.65
2023-01-29T13:48:50.822Z,85.63
2023-01-29T13:51:21.860Z,85.99
2023-01-29T13:54:02.362Z,85.66
2023-01-29T13:56:34.879Z,85.67
2023-01-29T13:59:03.259Z,85.77
2023-01-29T14:01:48.062Z,85.93
2023-01-29T14:04:21.632Z,85.72
2023-01-29T14:06:50.725Z,85.81
2023-01-29T14:09:38.704Z,85.96
2023-01-29T14:12:25.105Z,86.01
2023-01-29T14:15:04.442Z,86.14
2023-01-29T14:17:31.036Z,86.04
2023-01-29T14:20:18.978Z,86.60
2023-01-29T14:22:56.367Z,86.35
2023-01-29T14:25:30.115Z,86.21
2023-01-29T14:27:58.709Z,86.59
2023-01-29T14:30:27.810Z,86.40
2023-01-29T14:32:54.711Z,86.70
2023-01-29T14:35:24.441Z,86.47
2023-01-29T14:37:53.750Z,86.61
2023-01-29T14:40:20.245Z,86.66
2023-01-29T14:43:27.842Z,86.62
2023-01-29T14:45:54.326Z,86.65
2023-01-29T14:48:45.933Z,86.28
2023-01-29T14:51:17.957Z,86.56
2023-01-29T14:53:52.903Z,86.58
2023-01-29T14:56:24.419Z,86.53
2023-01-29T14:59:14.589Z,86.70
2023-01-29T15:01:47.752Z,87.31
2023-01-29T15:04:21.440Z,86.84
2023-01-29T15:07:12.108Z,87.16
2023-01-29T15:09:46.460Z,86.75
2023-01-29T15:12:15.835Z,86.76
2023-01-29T15:14:52.320Z,86.64
2023-01-29T15:17:25.828Z,87.16
2023-01-29T15:19:52.861Z,86.89
2023-01-29T15:22:21.734Z,86.59
2023-01-29T15:25:03.868Z,86.72
2023-01-29T15:27:30.956Z,87.23
2023-01-29T15:30:00.805Z,87.20
2023-01-29T15:32:33.245Z,87.30
2023-01-29T15:35:00.468Z,87.29
2023-01-29T15:37:29.957Z,86.89
2023-01-29T15:39:58.435Z,87.06
2023-01-29T15:42:27.425Z,87.25
2023-01-29T15:44:54.607Z,87.47
2023-01-29T15:47:25.540Z,87.42
2023-01-29T15:49:52.663Z,87.96
2023-01-29T15:52:25.878Z,88.08
2023-01-29T15:54:52.972Z,87.88
2023-01-29T15:57:23.810Z,87.98
2023-01-29T15:59:52.483Z,88.04
2023-01-29T16:02:35.761Z,87.79
2023-01-29T16:05:03.552Z,88.31
2023-01-29T16:07:30.135Z,88.39
2023-01-29T16:09:57.411Z,88.39
2023-01-29T16:12:24.475Z,88.64
2023-01-29T16:14:51.594Z,88.56
2023-01-29T16:17:24.368Z,89.59
2023-01-29T16:19:58.600Z,90.08
2023-01-29T16:22:29.291Z,90.88
2023-01-29T16:24:55.950Z,91.52
2023-01-29T16:27:24.968Z,91.86
2023-01-29T16:29:51.683Z,91.88
2023-01-29T16:32:20.190Z,92.26
2023-01-29T16:34:52.971Z,92.19
2023-01-29T16:37:35.676Z,92.29
2023-01-29T16:40:14.150Z,92.38
2023-01-29T16:42:41.574Z,92.14
2023-01-29T16:45:29.272Z,92.04
2023-01-29T16:48:01.786Z,92.83
2023-01-29T16:50:35.899Z,93.33
2023-01-29T16:53:20.798Z,93.57
2023-01-29T16:55:49.615Z,93.59
2023-01-29T16:58:18.999Z,93.89
2023-01-29T17:00:49.214Z,94.47
2023-01-29T17:03:18.065Z,94.42
2023-01-29T17:05:45.419Z,94.73
2023-01-29T17:08:23.697Z,94.67
2023-01-29T17:10:50.222Z,94.85
2023-01-29T17:13:42.668Z,95.08
2023-01-29T17:16:27.293Z,95.27
2023-01-29T17:18:53.977Z,95.07
2023-01-29T17:21:20.529Z,94.67
2023-01-29T17:23:46.972Z,94.74
2023-01-29T17:26:14.675Z,95.00
2023-01-29T17:28:41.606Z,94.51
2023-01-29T17:31:08.533Z,94.59
2023-01-29T17:33:38.085Z,94.44
2023-01-29T17:36:04.792Z,94.40
2023-01-29T17:38:32.134Z,93.95
2023-01-29T17:41:04.713Z,94.02
2023-01-29T17:43:31.136Z,94.07
2023-01-29T17:45:57.582Z,93.66
2023-01-29T17:48:26.885Z,93.50
2023-01-29T17:50:57.044Z,93.51
2023-01-29T17:53:26.505Z,93.44
2023-01-29T17:55:57.232Z,93.69
2023-01-29T17:58:26.865Z,93.06
2023-01-29T18:00:54.291Z,93.24
2023-01-29T18:03:22.320Z,93.20
2023-01-29T18:05:50.078Z,93.10
2023-01-29T18:08:20.468Z,93.09
2023-01-29T18:10:47.119Z,92.71
2023-01-29T18:13:14.091Z,93.04
2023-01-29T18:15:40.763Z,92.97
2023-01-29T18:18:14.828Z,93.10
2023-01-29T18:20:41.424Z,93.04
2023-01-29T18:23:08.487Z,92.78
2023-01-29T18:25:35.319Z,92.90
2023-01-29T18:28:02.482Z,93.01
2023-01-29T18:30:29.028Z,93.27
2023-01-29T18:32:55.486Z,93.25
2023-01-29T18:35:22.126Z,93.18
2023-01-29T18:37:48.583Z,93.00
2023-01-29T18:40:17.318Z,92.90
2023-01-29T18:42:44.989Z,93.28
2023-01-29T18:45:12.231Z,93.33
2023-01-29T18:47:39.344Z,93.39
2023-01-29T18:50:07.261Z,93.53
2023-01-29T18:52:34.312Z,93.43
2023-01-29T18:55:03.495Z,93.20
2023-01-29T18:58:33.918Z,93.81
2023-01-29T19:00:16.910Z,93.49
2023-01-29T19:02:44.986Z,93.64
2023-01-29T19:05:11.621Z,93.59
2023-01-29T19:07:42.115Z,93.91
2023-01-29T19:10:12.471Z,93.64
2023-01-29T19:12:42.379Z,93.71
2023-01-29T19:15:10.256Z,94.10
2023-01-29T19:17:36.937Z,94.08
2023-01-29T19:20:04.707Z,93.86
2023-01-29T19:22:32.106Z,94.06
2023-01-29T19:24:58.501Z,94.08
2023-01-29T19:27:26.106Z,94.20
2023-01-29T19:29:52.766Z,94.09
2023-01-29T19:32:19.163Z,93.86
2023-01-29T19:34:45.635Z,94.21
2023-01-29T19:37:12.010Z,94.21
2023-01-29T19:39:38.442Z,94.54
2023-01-29T19:42:04.970Z,94.43
2023-01-29T19:44:31.347Z,94.26
2023-01-29T19:46:57.858Z,94.58
2023-01-29T19:49:25.055Z,94.45
2023-01-29T19:51:51.458Z,94.50
2023-01-29T19:54:18.235Z,94.68
2023-01-29T19:56:44.597Z,94.64
2023-01-29T19:59:11.484Z,95.03
2023-01-29T20:01:38.292Z,95.10
2023-01-29T20:04:05.930Z,94.84
2023-01-29T20:06:32.378Z,94.96
2023-01-29T20:09:02.063Z,94.94
2023-01-29T20:11:29.012Z,95.26
2023-01-29T20:13:55.478Z,95.23
2023-01-29T20:16:22.512Z,95.24
2023-01-29T20:18:49.218Z,95.19
2023-01-29T20:21:18.080Z,95.40
2023-01-29T20:23:45.926Z,95.33
2023-01-29T20:26:14.871Z,95.71
2023-01-29T20:28:42.264Z,95.43
2023-01-29T20:31:09.991Z,95.43
2023-01-29T20:33:39.160Z,95.61
2023-01-29T20:36:08.975Z,96.19
2023-01-29T20:38:35.869Z,96.00
2023-01-29T20:41:10.640Z,96.38
2023-01-29T20:43:37.131Z,96.24
2023-01-29T20:46:04.256Z,96.03
2023-01-29T20:48:31.462Z,96.41
2023-01-29T20:51:07.886Z,96.58
2023-01-29T20:53:34.403Z,96.85
2023-01-29T20:56:03.183Z,96.80
2023-01-29T20:58:30.545Z,96.95
2023-01-29T21:00:56.925Z,97.28
2023-01-29T21:03:23.355Z,97.37
2023-01-29T21:05:50.308Z,97.61
2023-01-29T21:08:16.920Z,97.65
2023-01-29T21:10:45.093Z,97.76
2023-01-29T21:13:12.263Z,98.04
2023-01-29T21:15:38.713Z,98.24
2023-01-29T21:18:06.469Z,98.33
2023-01-29T21:20:33.008Z,99.00
2023-01-29T21:22:59.553Z,99.04
2023-01-29T21:25:25.939Z,98.76
2023-01-29T21:27:52.316Z,99.03
2023-01-29T21:30:19.278Z,99.66
2023-01-29T21:32:46.386Z,99.27
2023-01-29T21:35:12.992Z,99.55
2023-01-29T21:37:39.444Z,100.00
2023-01-29T21:40:07.121Z,100.00
2023-01-29T21:42:52.039Z,100.00
2023-01-29T21:45:20.406Z,100.00
2023-01-29T21:47:46.919Z,100.00
2023-01-29T21:50:13.350Z,100.00
2023-01-29T21:52:39.773Z,100.00
2023-01-29T21:55:06.770Z,100.00
2023-01-29T21:57:33.404Z,100.00
2023-01-29T21:59:59.844Z,100.00
2023-01-29T22:02:27.690Z,100.00
2023-01-29T22:05:08.731Z,100.00
2023-01-29T22:07:44.235Z,100.00
2023-01-29T22:10:12.064Z,100.00
2023-01-29T22:12:38.963Z,100.00
2023-01-29T22:15:07.187Z,100.00
2023-01-29T22:17:33.997Z,100.00
2023-01-29T22:20:00.408Z,100.00
2023-01-29T22:22:26.885Z,100.00
2023-01-29T22:24:55.064Z,100.00
2023-01-29T22:27:21.524Z,100.00
2023-01-29T22:29:47.921Z,100.00
2023-01-29T22:32:14.344Z,100.00
2023-01-29T22:34:40.768Z,100.00
2023-01-29T22:37:07.185Z,100.00
2023-01-29T22:39:33.530Z,100.00
2023-01-29T22:41:59.927Z,100.00
2023-01-29T22:44:26.378Z,100.00
2023-01-29T22:46:52.793Z,100.00
2023-01-29T22:49:19.573Z,100.00
2023-01-29T22:51:47.031Z,100.00
2023-01-29T22:54:15.413Z,100.00
2023-01-29T22:56:41.963Z,100.00
2023-01-29T22:59:09.968Z,100.00
2023-01-29T23:01:36.380Z,100.00
2023-01-29T23:04:02.738Z,100.00
2023-01-29T23:06:29.131Z,100.00
2023-01-29T23:08:55.580Z,100.00
2023-01-29T23:11:23.434Z,100.00
2023-01-29T23:13:52.498Z,100.00
2023-01-29T23:16:20.716Z,100.00
2023-01-29T23:18:50.993Z,100.00
2023-01-29T23:21:18.107Z,100.00
2023-01-29T23:23:45.211Z,100.00
2023-01-29T23:26:31.382Z,100.00
2023-01-29T23:28:59.283Z,100.00
2023-01-29T23:31:26.531Z,100.00
2023-01-29T23:33:53.077Z,100.00
2023-01-29T23:36:19.505Z,100.00
2023-01-29T23:38:45.968Z,100.00
2023-01-29T23:41:12.372Z,100.00
2023-01-29T23:43:38.763Z,100.00
2023-01-29T23:46:05.297Z,100.00
2023-01-29T23:48:31.764Z,100.00
2023-01-29T23:50:58.186Z,100.00
2023-01-29T23:53:24.646Z,100.00
2023-01-29T23:56:02.644Z,100.00
2023-01-29T23:58:29.797Z,100.00
